Time;durP1;ratioP1;P1;durP2;ratioP2;P2;SDS_P1;SDS_P2;PMS_P1;PMS_P2;Temp;Humidity;BMP_temperature;BMP_pressure;BME280_temperature;BME280_humidity;BME280_pressure;Samples;Min_cycle;Max_cycle;Signal;HPM_P1;HPM_P2
2022/06/29 00:00:20;;;;;;;3.45;2.42;;;;;;;19.73;68.53;101001.84;5034897;28;20037;-69
2022/06/29 00:02:48;;;;;;;5.60;2.85;;;;;;;19.69;68.57;101011.81;5031262;28;20040;-70
2022/06/29 00:05:16;;;;;;;4.50;2.65;;;;;;;19.69;68.87;101017.16;5034701;28;20033;-70
2022/06/29 00:07:43;;;;;;;4.00;2.58;;;;;;;19.75;68.30;101016.84;5028593;28;20037;-71
2022/06/29 00:10:10;;;;;;;4.47;3.00;;;;;;;19.74;68.26;101012.44;5034381;28;20046;-69
2022/06/29 00:12:36;;;;;;;6.10;2.67;;;;;;;19.73;68.16;101021.38;5034354;28;20083;-69
2022/06/29 00:15:02;;;;;;;3.28;2.50;;;;;;;19.62;68.70;101021.03;5034582;28;20068;-69
2022/06/29 00:17:30;;;;;;;5.32;3.08;;;;;;;19.59;69.14;101018.50;5017050;28;20441;-71
2022/06/29 00:19:56;;;;;;;5.22;2.80;;;;;;;19.61;68.83;101021.97;5034658;28;20041;-70
2022/06/29 00:22:22;;;;;;;4.80;2.83;;;;;;;19.59;69.01;101018.50;5034214;28;20433;-69
2022/06/29 00:24:47;;;;;;;7.05;3.00;;;;;;;19.57;69.06;101017.72;5034905;28;20040;-70
2022/06/29 00:27:12;;;;;;;4.43;2.88;;;;;;;19.55;69.13;101016.91;5034421;28;20063;-70
2022/06/29 00:29:38;;;;;;;4.82;3.03;;;;;;;19.56;68.88;101018.66;5017052;28;20058;-70
2022/06/29 00:32:05;;;;;;;4.38;3.22;;;;;;;19.55;68.93;101016.91;5034058;28;20108;-69
2022/06/29 00:34:31;;;;;;;7.43;2.92;;;;;;;19.54;68.91;101015.19;5034411;28;20037;-71
2022/06/29 00:36:56;;;;;;;5.82;2.78;;;;;;;19.59;68.87;101010.50;5034440;28;20037;-70
2022/06/29 00:39:22;;;;;;;5.07;2.90;;;;;;;19.65;68.65;101013.75;5033980;28;20045;-71
2022/06/29 00:41:47;;;;;;;3.20;2.60;;;;;;;19.69;68.53;101010.00;5034112;28;20137;-70
2022/06/29 00:44:17;;;;;;;2.78;2.35;;;;;;;19.80;68.05;101012.16;5034041;28;20036;-70
2022/06/29 00:46:53;;;;;;;4.95;2.80;;;;;;;19.84;68.02;101013.72;5028135;28;20366;-71
2022/06/29 00:49:21;;;;;;;4.03;2.50;;;;;;;19.92;67.59;101011.53;5015994;28;20382;-71
2022/06/29 00:51:54;;;;;;;6.30;3.42;;;;;;;19.93;67.45;101005.25;5033930;28;20028;-70
2022/06/29 00:54:23;;;;;;;6.82;3.17;;;;;;;19.85;67.57;101003.91;5033391;28;20037;-71
2022/06/29 00:56:49;;;;;;;5.32;2.83;;;;;;;19.81;68.02;100999.69;5049181;28;20068;-71
2022/06/29 00:59:18;;;;;;;4.00;2.80;;;;;;;19.68;68.29;100994.09;5016016;28;20555;-70
2022/06/29 01:01:44;;;;;;;6.88;3.63;;;;;;;19.59;68.74;100991.84;5027758;28;20044;-71
2022/06/29 01:04:09;;;;;;;3.90;3.10;;;;;;;19.61;68.55;100996.19;5033578;28;20037;-71
2022/06/29 01:06:35;;;;;;;4.88;2.92;;;;;;;19.61;68.45;100997.97;5033807;28;20034;-71
2022/06/29 01:09:01;;;;;;;4.00;2.58;;;;;;;19.61;68.47;100987.31;5015844;28;20033;-69
2022/06/29 01:11:26;;;;;;;4.20;3.00;;;;;;;19.60;68.42;100985.59;4999332;28;20041;-69
2022/06/29 01:13:52;;;;;;;3.78;3.20;;;;;;;19.60;68.59;100982.91;5015833;28;20033;-69
2022/06/29 01:16:19;;;;;;;5.88;3.35;;;;;;;19.42;69.20;100996.19;5033161;28;20509;-69
2022/06/29 01:18:44;;;;;;;4.47;3.30;;;;;;;19.33;69.49;100985.13;5033527;28;20041;-69
2022/06/29 01:21:11;;;;;;;5.82;2.90;;;;;;;19.20;69.92;100983.06;5033114;28;20393;-69
2022/06/29 01:23:36;;;;;;;4.45;3.30;;;;;;;19.17;70.00;100985.00;5015662;28;20036;-70
2022/06/29 01:26:07;;;;;;;5.82;3.72;;;;;;;19.02;71.21;100977.72;5033615;28;20033;-69
2022/06/29 01:28:32;;;;;;;6.22;3.17;;;;;;;19.05;70.58;100982.94;5032099;28;20037;-69
2022/06/29 01:30:59;;;;;;;5.40;3.63;;;;;;;18.95;70.96;100962.06;5033213;28;20100;-69
2022/06/29 01:33:30;;;;;;;6.80;3.78;;;;;;;18.86;71.29;100962.47;5032957;28;20033;-69
2022/06/29 01:35:59;;;;;;;5.50;3.10;;;;;;;18.87;71.28;100955.34;5016039;28;20037;-69
2022/06/29 01:38:24;;;;;;;6.43;3.50;;;;;;;18.86;71.26;100959.81;5033059;28;20029;-69
2022/06/29 01:40:50;;;;;;;5.75;3.50;;;;;;;18.75;71.77;100961.25;5032545;28;20036;-69
2022/06/29 01:43:15;;;;;;;9.82;4.75;;;;;;;18.64;72.32;100954.59;5032711;28;20036;-70
2022/06/29 01:45:40;;;;;;;7.97;4.15;;;;;;;18.59;72.58;100961.06;5015153;28;20065;-70
2022/06/29 01:48:06;;;;;;;6.10;4.10;;;;;;;18.65;72.44;100955.47;5015157;28;20033;-69
2022/06/29 01:50:31;;;;;;;8.13;4.40;;;;;;;18.59;72.81;100958.41;5015266;28;20042;-70
2022/06/29 01:52:56;;;;;;;6.03;3.55;;;;;;;18.54;73.13;100947.09;5032950;28;20034;-70
2022/06/29 01:55:22;;;;;;;5.57;3.80;;;;;;;18.62;72.55;100944.97;5032674;28;20049;-70
2022/06/29 01:57:47;;;;;;;6.18;3.60;;;;;;;18.60;72.83;100941.50;5033037;28;20051;-70
2022/06/29 02:00:13;;;;;;;8.02;4.22;;;;;;;18.65;72.36;100944.81;5014745;28;20044;-70
2022/06/29 02:02:39;;;;;;;4.88;3.60;;;;;;;18.71;72.34;100949.88;5032656;28;20512;-68
2022/06/29 02:05:04;;;;;;;6.53;4.43;;;;;;;18.73;72.12;100941.84;5032786;28;20037;-67
2022/06/29 02:07:30;;;;;;;6.05;4.05;;;;;;;18.73;72.14;100937.38;5032090;28;20033;-70
2022/06/29 02:09:55;;;;;;;5.18;3.45;;;;;;;18.81;71.60;100935.22;5032448;28;20501;-69
2022/06/29 02:12:21;;;;;;;7.15;4.20;;;;;;;18.76;71.61;100937.25;5032536;28;20029;-69
2022/06/29 02:14:46;;;;;;;6.53;4.20;;;;;;;18.82;71.26;100938.75;5032872;28;20036;-69
2022/06/29 02:17:13;;;;;;;8.27;4.30;;;;;;;18.64;71.96;100938.63;5032128;28;20036;-69
2022/06/29 02:19:38;;;;;;;5.18;3.67;;;;;;;18.59;72.02;100940.66;5032650;28;20041;-69
2022/06/29 02:22:04;;;;;;;7.68;4.25;;;;;;;18.62;72.08;100939.63;5032300;28;20044;-69
2022/06/29 02:24:29;;;;;;;6.57;4.45;;;;;;;18.64;71.78;100924.47;5032610;28;20524;-69
2022/06/29 02:26:55;;;;;;;6.10;4.35;;;;;;;18.67;71.72;100927.84;5032427;28;20151;-69
2022/06/29 02:29:20;;;;;;;7.32;4.60;;;;;;;18.57;71.98;100931.00;5031941;28;20120;-69
2022/06/29 02:34:44;;;;;;;5.72;4.07;;;;;;;18.61;71.59;100924.59;5032289;28;20059;-68
2022/06/29 02:37:11;;;;;;;4.18;3.53;;;;;;;18.68;71.25;100923.41;5016597;28;20592;-68
2022/06/29 02:39:36;;;;;;;4.30;3.53;;;;;;;18.67;71.39;100927.84;5032243;28;20053;-69
2022/06/29 02:42:02;;;;;;;6.70;3.90;;;;;;;18.60;71.27;100918.44;5032228;28;20111;-69
2022/06/29 02:44:27;;;;;;;5.53;4.20;;;;;;;18.67;71.33;100908.34;5014101;28;20100;-69
2022/06/29 02:46:53;;;;;;;5.70;4.22;;;;;;;18.73;70.98;100905.44;5029735;28;20483;-70
2022/06/29 02:49:18;;;;;;;6.35;4.55;;;;;;;18.78;70.71;100911.41;5032229;28;20392;-70
2022/06/29 02:51:44;;;;;;;7.53;4.22;;;;;;;18.72;70.98;100914.38;5034151;28;20060;-71
2022/06/29 02:54:09;;;;;;;7.90;4.53;;;;;;;18.66;71.10;100910.13;5035868;28;20399;-71
2022/06/29 02:56:35;;;;;;;6.55;4.28;;;;;;;18.59;71.37;100910.50;5018336;28;20038;-69
2022/06/29 02:59:00;;;;;;;5.50;4.40;;;;;;;18.53;71.58;100909.00;5018433;28;20037;-70
2022/06/29 03:01:25;;;;;;;7.13;4.35;;;;;;;18.54;71.37;100909.84;5035741;28;20481;-70
2022/06/29 03:03:51;;;;;;;5.40;4.60;;;;;;;18.59;71.28;100913.16;5018466;28;20096;-71
2022/06/29 03:06:16;;;;;;;6.95;4.63;;;;;;;18.58;71.28;100908.78;5035816;28;20038;-71
2022/06/29 03:08:42;;;;;;;6.03;4.75;;;;;;;18.58;71.15;100909.63;5018159;28;20061;-70
2022/06/29 03:11:07;;;;;;;7.22;4.40;;;;;;;18.56;71.44;100913.31;5035379;28;20128;-68
2022/06/29 03:13:33;;;;;;;6.90;4.32;;;;;;;18.63;71.31;100917.41;5017746;28;20040;-70
2022/06/29 03:15:58;;;;;;;9.70;5.10;;;;;;;18.78;70.79;100922.03;5018472;28;20790;-71
2022/06/29 03:18:24;;;;;;;8.05;3.65;;;;;;;19.02;70.07;100937.78;5050995;28;20115;-71
2022/06/29 03:20:49;;;;;;;7.10;4.63;;;;;;;19.17;69.36;100937.06;5034473;28;20034;-72
2022/06/29 03:23:14;;;;;;;4.60;3.85;;;;;;;19.29;68.85;100936.47;5017729;28;20090;-69
2022/06/29 03:25:40;;;;;;;4.72;3.53;;;;;;;19.45;68.13;100948.09;5050797;28;20037;-70
2022/06/29 03:28:06;;;;;;;6.57;4.25;;;;;;;19.59;67.43;100944.75;5035366;28;20044;-71
2022/06/29 03:30:32;;;;;;;9.93;5.15;;;;;;;19.62;67.25;100938.41;5035782;28;20052;-70
2022/06/29 03:32:57;;;;;;;6.18;4.60;;;;;;;19.67;67.07;100936.41;5035579;28;20370;-71
2022/06/29 03:35:23;;;;;;;6.63;4.10;;;;;;;19.70;66.92;100946.88;5035188;28;20068;-71
2022/06/29 03:37:50;;;;;;;6.45;4.38;;;;;;;19.69;66.95;100950.50;5035166;28;20033;-73
2022/06/29 03:40:15;;;;;;;6.18;3.85;;;;;;;19.59;67.37;100954.53;5022960;28;20065;-70
2022/06/29 03:42:41;;;;;;;6.78;4.60;;;;;;;19.69;66.89;100969.16;5051275;28;20136;-70
2022/06/29 03:45:07;;;;;;;5.47;3.95;;;;;;;19.80;67.25;100969.50;5036120;28;20033;-71
2022/06/29 03:47:32;;;;;;;9.90;5.20;;;;;;;19.99;66.30;100958.75;5036096;28;20034;-71
2022/06/29 03:49:57;;;;;;;6.75;4.35;;;;;;;19.68;67.03;100957.63;5051592;28;20037;-71
2022/06/29 03:52:23;;;;;;;6.45;4.57;;;;;;;19.75;66.76;100968.88;5051494;28;20144;-71
2022/06/29 03:54:48;;;;;;;7.80;5.00;;;;;;;19.90;66.70;100959.19;5051179;28;20091;-70
2022/06/29 03:57:14;;;;;;;6.78;4.82;;;;;;;19.90;66.76;100953.88;5034715;28;20466;-70
2022/06/29 03:59:39;;;;;;;6.22;4.80;;;;;;;19.91;66.51;100956.47;4999745;28;20044;-69
2022/06/29 04:02:05;;;;;;;5.57;4.60;;;;;;;19.97;66.53;100949.09;5019627;28;20033;-70
2022/06/29 04:04:36;;;;;;;5.18;4.28;;;;;;;20.12;66.44;100942.97;5034155;28;20108;-71
2022/06/29 04:07:01;;;;;;;7.57;4.18;;;;;;;20.08;66.46;100936.06;5018525;28;20037;-71
2022/06/29 04:09:27;;;;;;;5.82;4.95;;;;;;;20.16;66.14;100936.53;4992439;28;20081;-71
2022/06/29 04:11:53;;;;;;;8.52;4.90;;;;;;;20.09;66.18;100927.97;4980889;28;20054;-71
2022/06/29 04:14:22;;;;;;;9.32;5.85;;;;;;;19.86;67.45;100921.16;4993470;28;20042;-70
2022/06/29 04:16:47;;;;;;;8.25;5.55;;;;;;;19.87;67.11;100912.25;4993153;28;20030;-69
2022/06/29 04:19:12;;;;;;;7.70;5.10;;;;;;;19.95;66.92;100898.50;5012285;28;20029;-72
2022/06/29 04:21:41;;;;;;;8.25;5.25;;;;;;;20.00;66.84;100907.13;5018866;28;20038;-71
2022/06/29 04:24:08;;;;;;;7.28;4.70;;;;;;;20.03;66.88;100903.41;5014024;28;20060;-72
2022/06/29 04:26:33;;;;;;;8.38;5.35;;;;;;;20.18;66.45;100905.28;4997184;28;20517;-68
2022/06/29 04:28:59;;;;;;;5.63;4.55;;;;;;;20.39;66.11;100898.81;4965155;28;20173;-72
2022/06/29 04:31:24;;;;;;;7.72;4.95;;;;;;;20.51;65.71;100907.13;4994012;28;20039;-71
2022/06/29 04:33:50;;;;;;;7.85;4.22;;;;;;;20.69;65.28;100899.91;5012875;28;20068;-69
2022/06/29 04:36:16;;;;;;;11.02;4.10;;;;;;;20.91;65.14;100892.41;5013700;28;20415;-71
2022/06/29 04:38:41;;;;;;;7.00;4.32;;;;;;;21.08;64.81;100905.66;5015356;28;20070;-71
2022/06/29 04:41:07;;;;;;;7.22;4.70;;;;;;;21.12;64.32;100903.69;5015419;28;20033;-70
2022/06/29 04:43:32;;;;;;;6.93;4.38;;;;;;;20.89;64.23;100905.84;5015400;28;20025;-71
2022/06/29 04:48:43;;;;;;;7.97;4.65;;;;;;;20.92;63.89;100897.66;5014669;28;20085;-72
2022/06/29 04:51:08;;;;;;;7.13;3.83;;;;;;;21.05;63.66;100897.81;5012656;28;20114;-72
2022/06/29 04:53:34;;;;;;;7.82;3.78;;;;;;;21.37;63.03;100917.38;4996354;28;20034;-70
2022/06/29 04:55:59;;;;;;;7.25;4.65;;;;;;;21.37;62.70;100917.38;4976021;28;20066;-73
2022/06/29 04:58:25;;;;;;;5.13;3.00;;;;;;;21.53;62.36;100912.00;4994011;28;20389;-72
2022/06/29 05:00:51;;;;;;;4.63;3.25;;;;;;;21.51;61.99;100921.06;4997484;28;20042;-72
2022/06/29 05:03:17;;;;;;;5.10;3.35;;;;;;;21.57;61.48;100910.00;5013411;28;20049;-73
2022/06/29 05:05:42;;;;;;;6.82;3.60;;;;;;;21.55;61.54;100918.13;4977432;28;20038;-73
2022/06/29 05:08:08;;;;;;;3.95;2.85;;;;;;;21.64;61.51;100912.22;4977734;28;20037;-72
2022/06/29 05:10:33;;;;;;;4.95;3.00;;;;;;;21.83;60.92;100914.66;4977597;28;20050;-67
2022/06/29 05:13:00;;;;;;;6.72;3.05;;;;;;;21.93;60.55;100906.94;4980660;28;20045;-72
2022/06/29 05:15:26;;;;;;;5.57;3.10;;;;;;;21.99;60.21;100917.28;5014195;28;20030;-73
2022/06/29 05:17:51;;;;;;;3.60;2.47;;;;;;;22.04;59.90;100923.19;4997137;28;20040;-73
2022/06/29 05:20:19;;;;;;;3.67;2.70;;;;;;;21.97;60.02;100910.28;5013051;28;20053;-69
2022/06/29 05:22:44;;;;;;;4.15;2.60;;;;;;;22.03;59.44;100907.25;5012908;28;20079;-71
2022/06/29 05:25:10;;;;;;;7.68;3.10;;;;;;;22.18;59.18;100902.78;5013515;28;20040;-73
2022/06/29 05:27:36;;;;;;;7.03;3.10;;;;;;;22.56;58.30;100908.44;4990670;28;20046;-73
2022/06/29 05:30:01;;;;;;;5.38;2.80;;;;;;;22.92;57.42;100910.59;4994778;28;20387;-73
2022/06/29 05:32:26;;;;;;;4.95;2.80;;;;;;;22.92;56.80;100913.28;4977710;28;20089;-73
2022/06/29 05:34:52;;;;;;;2.97;2.20;;;;;;;22.86;57.10;100906.47;4977865;28;20050;-73
2022/06/29 05:37:17;;;;;;;2.83;2.35;;;;;;;22.80;56.81;100911.34;4994850;28;20138;-73
2022/06/29 05:39:44;;;;;;;5.72;2.92;;;;;;;22.37;56.81;100900.69;4994923;28;20038;-73
2022/06/29 05:42:12;;;;;;;3.63;2.60;;;;;;;22.15;57.71;100905.66;4994829;28;20039;-73
2022/06/29 05:44:38;;;;;;;2.42;2.22;;;;;;;22.43;57.29;100899.47;4994971;28;20089;-73
2022/06/29 05:47:04;;;;;;;4.85;2.65;;;;;;;22.50;56.79;100898.97;4993564;28;20039;-73
2022/06/29 05:49:30;;;;;;;3.53;2.45;;;;;;;22.89;55.98;100900.03;4977212;28;20393;-73
2022/06/29 05:51:55;;;;;;;4.30;2.63;;;;;;;22.97;55.68;100896.91;4994489;28;20069;-73
2022/06/29 05:54:21;;;;;;;6.35;3.20;;;;;;;22.63;56.74;100891.88;4994426;28;20087;-73
2022/06/29 05:56:46;;;;;;;6.53;2.78;;;;;;;22.12;57.83;100887.94;4995096;28;20030;-73
2022/06/29 05:59:12;;;;;;;8.55;3.70;;;;;;;21.71;59.17;100887.81;4994585;28;20088;-73
2022/06/29 06:01:37;;;;;;;3.63;2.47;;;;;;;22.15;58.80;100889.63;4977069;28;20556;-73
2022/06/29 06:04:03;;;;;;;4.95;3.08;;;;;;;22.04;58.71;100903.63;4994310;28;20035;-73
2022/06/29 06:06:28;;;;;;;5.68;2.40;;;;;;;22.29;58.44;100903.84;4960870;28;20050;-73
2022/06/29 06:08:54;;;;;;;4.65;3.15;;;;;;;22.18;58.36;100909.00;4994724;28;20038;-73
2022/06/29 06:11:19;;;;;;;5.38;3.08;;;;;;;22.19;58.45;100901.84;4976888;28;20065;-73
2022/06/29 06:13:44;;;;;;;4.72;3.10;;;;;;;22.44;57.94;100898.50;4977203;28;20113;-73
2022/06/29 06:16:10;;;;;;;4.30;3.03;;;;;;;22.36;57.80;100893.63;4993074;28;20042;-73
2022/06/29 06:18:35;;;;;;;5.35;3.17;;;;;;;22.51;57.69;100898.00;4994053;28;20101;-73
2022/06/29 06:21:02;;;;;;;7.15;3.28;;;;;;;22.70;57.27;100892.34;4992874;28;20389;-72
2022/06/29 06:23:27;;;;;;;6.85;3.33;;;;;;;23.07;56.30;100895.34;4976728;28;19964;-74
2022/06/29 06:25:53;;;;;;;5.40;3.20;;;;;;;23.12;56.38;100895.91;4994176;28;20461;-74
2022/06/29 06:28:18;;;;;;;4.65;3.55;;;;;;;22.92;56.71;100896.34;4976770;28;20434;-73
2022/06/29 06:30:43;;;;;;;6.40;2.90;;;;;;;23.25;55.98;100890.56;4961104;28;20417;-73
2022/06/29 06:33:09;;;;;;;5.88;2.95;;;;;;;23.52;55.31;100898.59;4994195;28;20453;-73
2022/06/29 06:35:34;;;;;;;7.82;3.10;;;;;;;23.43;55.54;100893.88;4992715;28;20060;-74
2022/06/29 06:38:01;;;;;;;6.40;3.60;;;;;;;23.43;55.51;100893.88;4994405;28;20453;-73
2022/06/29 06:43:34;;;;;;;5.82;3.03;;;;;;;23.01;56.63;100890.38;4994184;28;20089;-72
2022/06/29 06:46:05;;;;;;;3.10;2.47;;;;;;;23.33;55.84;100891.78;4976711;28;20121;-72
2022/06/29 06:48:30;;;;;;;4.75;2.80;;;;;;;23.80;54.75;100879.69;4976765;28;20500;-74
2022/06/29 06:50:55;;;;;;;4.18;3.20;;;;;;;24.05;54.30;100875.28;4993907;28;20039;-74
2022/06/29 06:53:22;;;;;;;5.93;2.95;;;;;;;23.78;54.36;100870.03;4993990;28;20038;-73
2022/06/29 06:55:48;;;;;;;5.50;2.72;;;;;;;23.77;54.30;100877.19;4976463;28;20498;-73
2022/06/29 06:58:13;;;;;;;3.60;2.47;;;;;;;24.13;53.69;100874.75;4993770;28;20121;-73
2022/06/29 07:00:39;;;;;;;5.80;2.50;;;;;;;24.12;53.71;100878.41;4976336;28;20026;-74
2022/06/29 07:03:13;;;;;;;6.97;2.88;;;;;;;23.90;53.91;100887.09;4993811;28;20129;-73
2022/06/29 07:05:38;;;;;;;4.28;3.08;;;;;;;24.16;53.08;100890.66;4993272;28;20422;-73
2022/06/29 07:08:04;;;;;;;4.35;2.63;;;;;;;24.57;52.23;100893.94;4993854;28;20521;-73
2022/06/29 07:10:30;;;;;;;6.68;2.85;;;;;;;24.65;52.18;100901.44;5006279;28;20064;-76
2022/06/29 07:12:55;;;;;;;3.50;2.30;;;;;;;24.85;51.47;100908.06;5028635;28;20034;-75
2022/06/29 07:15:21;;;;;;;3.35;2.15;;;;;;;25.27;50.32;100903.22;5012127;28;20088;-73
2022/06/29 07:17:46;;;;;;;4.30;2.22;;;;;;;25.58;49.66;100895.53;5013677;28;20026;-73
2022/06/29 07:20:12;;;;;;;4.20;2.13;;;;;;;25.49;49.40;100895.25;5012762;28;20030;-73
2022/06/29 07:22:37;;;;;;;3.83;2.08;;;;;;;25.59;49.55;100895.38;5013214;28;20034;-74
2022/06/29 07:25:03;;;;;;;3.45;2.10;;;;;;;25.34;50.11;100888.34;5012002;28;20073;-74
2022/06/29 07:27:28;;;;;;;4.07;2.45;;;;;;;25.20;50.65;100883.97;5013180;28;20030;-74
2022/06/29 07:29:53;;;;;;;3.47;2.25;;;;;;;25.11;50.73;100879.31;5011671;28;20030;-74
2022/06/29 07:32:20;;;;;;;4.55;2.10;;;;;;;24.91;50.77;100888.81;5028254;28;20040;-74
2022/06/29 07:34:46;;;;;;;2.15;1.95;;;;;;;24.76;51.29;100890.78;5013442;28;20038;-75
2022/06/29 07:37:11;;;;;;;3.30;2.03;;;;;;;24.89;51.27;100874.63;5012217;28;20536;-73
2022/06/29 07:39:37;;;;;;;3.25;2.20;;;;;;;25.21;50.72;100876.78;5016713;28;20124;-73
2022/06/29 07:42:03;;;;;;;4.35;2.78;;;;;;;24.92;50.92;100881.59;5016673;28;20033;-72
2022/06/29 07:44:29;;;;;;;4.03;2.20;;;;;;;24.97;51.07;100874.06;5016567;28;20034;-74
2022/06/29 07:46:54;;;;;;;3.22;2.20;;;;;;;25.41;50.31;100872.56;5016392;28;20041;-73
2022/06/29 07:49:24;;;;;;;3.25;2.50;;;;;;;25.83;48.53;100876.53;5016883;28;20042;-73
2022/06/29 07:51:52;;;;;;;3.08;2.28;;;;;;;25.97;48.70;100870.06;5016452;28;20037;-72
2022/06/29 07:54:17;;;;;;;3.90;1.70;;;;;;;26.56;47.16;100875.25;4998800;28;20092;-72
2022/06/29 07:56:43;;;;;;;1.98;1.60;;;;;;;27.15;46.14;100869.50;5016376;28;20030;-74
2022/06/29 07:59:08;;;;;;;2.75;1.90;;;;;;;27.33;44.51;100866.22;5016419;28;20418;-74
2022/06/29 08:01:34;;;;;;;3.53;1.75;;;;;;;27.68;44.84;100864.06;5016567;28;20037;-73
2022/06/29 08:03:59;;;;;;;2.80;1.80;;;;;;;28.00;44.07;100865.88;5016690;28;20076;-72
2022/06/29 08:06:25;;;;;;;4.30;1.80;;;;;;;28.57;43.18;100869.84;5016324;28;20034;-72
2022/06/29 08:08:51;;;;;;;2.70;1.80;;;;;;;28.73;42.81;100867.47;5016198;28;20042;-73
2022/06/29 08:11:16;;;;;;;2.17;1.83;;;;;;;29.08;42.52;100866.13;5016107;28;20046;-73
2022/06/29 08:13:42;;;;;;;3.25;2.00;;;;;;;28.41;43.39;100862.25;5014923;28;20037;-72
2022/06/29 08:16:08;;;;;;;3.53;1.90;;;;;;;28.27;42.86;100850.94;5015285;28;20033;-71
2022/06/29 08:18:35;;;;;;;4.15;2.13;;;;;;;27.45;44.32;100862.53;4998518;28;20445;-71
2022/06/29 08:21:02;;;;;;;1.88;1.67;;;;;;;27.40;45.37;100851.25;5031263;28;20052;-73
2022/06/29 08:23:28;;;;;;;3.53;2.30;;;;;;;26.64;45.60;100851.22;5015888;28;20461;-72
2022/06/29 08:25:53;;;;;;;7.65;2.80;;;;;;;26.23;46.58;100852.69;5015937;28;20037;-72
2022/06/29 08:28:19;;;;;;;3.75;1.70;;;;;;;26.14;47.17;100848.06;5015779;28;20103;-71
2022/06/29 08:30:44;;;;;;;2.88;1.98;;;;;;;26.01;47.47;100860.75;5016115;28;20061;-71
2022/06/29 08:33:10;;;;;;;2.72;2.10;;;;;;;25.73;47.59;100852.16;5015659;28;20069;-72
2022/06/29 08:35:36;;;;;;;4.15;1.83;;;;;;;25.76;48.10;100851.88;5016123;28;20466;-72
2022/06/29 08:38:02;;;;;;;3.70;2.20;;;;;;;25.94;47.54;100846.09;4998377;28;20041;-72
2022/06/29 08:40:35;;;;;;;3.67;1.83;;;;;;;26.04;47.90;100856.00;5015754;28;20473;-72
2022/06/29 08:43:00;;;;;;;2.10;1.90;;;;;;;26.36;47.21;100851.72;5015724;28;20032;-72
2022/06/29 08:45:26;;;;;;;4.20;2.53;;;;;;;26.57;46.24;100854.53;5016015;28;20042;-72
2022/06/29 08:47:51;;;;;;;2.65;2.10;;;;;;;26.72;46.47;100853.28;5015794;28;20042;-73
2022/06/29 08:50:17;;;;;;;3.05;2.10;;;;;;;27.13;45.07;100857.13;5014468;28;20041;-73
2022/06/29 08:52:45;;;;;;;2.53;2.00;;;;;;;27.49;44.69;100853.19;5030666;28;20042;-72
2022/06/29 08:55:11;;;;;;;3.20;2.28;;;;;;;27.74;44.43;100854.66;5015139;28;20074;-73
2022/06/29 08:57:40;;;;;;;2.35;1.95;;;;;;;28.18;43.78;100850.75;5015123;28;20466;-72
2022/06/29 09:00:08;;;;;;;3.70;1.77;;;;;;;28.75;42.54;100847.56;4998064;28;20124;-72
2022/06/29 09:02:34;;;;;;;3.45;2.13;;;;;;;29.18;41.87;100849.91;5030247;28;20029;-73
2022/06/29 09:04:59;;;;;;;3.63;1.80;;;;;;;29.45;41.36;100855.47;5015032;28;20104;-73
2022/06/29 09:07:25;;;;;;;3.03;1.80;;;;;;;29.52;40.31;100863.00;5030486;28;20536;-73
2022/06/29 09:10:08;;;;;;;2.20;1.70;;;;;;;29.92;39.91;100860.09;5029836;28;20064;-72
2022/06/29 09:12:34;;;;;;;2.83;1.92;;;;;;;29.91;39.48;100864.66;5015334;28;20030;-73
2022/06/29 09:15:00;;;;;;;4.07;1.88;;;;;;;28.98;40.32;100853.59;5014024;28;20037;-72
2022/06/29 09:17:29;;;;;;;6.45;1.95;;;;;;;28.45;41.92;100850.19;5030262;28;20501;-72
2022/06/29 09:19:55;;;;;;;12.85;2.35;;;;;;;28.21;41.94;100860.44;5015361;28;20029;-72
2022/06/29 09:22:20;;;;;;;3.35;2.10;;;;;;;27.43;43.73;100869.88;4997311;28;20041;-70
2022/06/29 09:24:47;;;;;;;5.38;1.90;;;;;;;27.15;44.56;100856.00;5014664;28;20042;-71
2022/06/29 09:27:13;;;;;;;2.58;1.80;;;;;;;26.93;44.89;100856.94;5014688;28;20079;-71
2022/06/29 09:29:41;;;;;;;2.85;1.85;;;;;;;26.59;45.57;100857.97;4997102;28;20430;-71
2022/06/29 09:32:14;;;;;;;3.45;1.98;;;;;;;26.50;45.35;100855.03;5014564;28;20117;-71
2022/06/29 09:34:43;;;;;;;3.13;2.20;;;;;;;26.55;45.58;100859.22;5029791;28;20034;-71
2022/06/29 09:37:19;;;;;;;3.58;2.20;;;;;;;26.99;45.07;100851.00;5013170;28;20037;-71
2022/06/29 09:39:47;;;;;;;3.80;2.15;;;;;;;27.54;44.06;100848.22;5014810;28;20033;-72
2022/06/29 09:42:14;;;;;;;3.85;2.28;;;;;;;27.78;43.43;100850.69;5014544;28;20030;-72
2022/06/29 09:44:42;;;;;;;2.95;2.13;;;;;;;27.66;43.16;100843.63;5029765;28;20049;-72
2022/06/29 09:47:15;;;;;;;2.17;1.80;;;;;;;28.17;42.88;100843.66;5014567;28;20034;-72
2022/06/29 09:50:02;;;;;;;2.70;1.80;;;;;;;28.53;41.76;100846.81;5014649;28;20030;-72
2022/06/29 09:52:28;;;;;;;1.85;1.58;;;;;;;29.10;40.66;100842.50;4996295;28;20099;-71
2022/06/29 09:54:59;;;;;;;2.80;1.50;;;;;;;29.60;40.33;100834.22;5014104;28;20501;-73
2022/06/29 09:57:29;;;;;;;2.00;1.45;;;;;;;30.26;39.05;100840.63;5014337;28;20501;-72
2022/06/29 10:02:47;;;;;;;3.30;1.60;;;;;;;31.37;37.73;100836.78;5014142;28;20386;-71
2022/06/29 10:05:20;;;;;;;5.13;1.60;;;;;;;30.70;36.97;100840.81;5012925;28;20038;-72
2022/06/29 10:07:51;;;;;;;4.30;1.98;;;;;;;30.05;38.35;100844.38;4996707;28;20022;-71
2022/06/29 10:10:22;;;;;;;3.70;1.80;;;;;;;29.49;38.91;100847.91;5014264;28;20074;-71
2022/06/29 10:13:41;;;;;;;4.25;1.83;;;;;;;29.03;39.55;100849.47;4996722;28;20080;-70
2022/06/29 10:16:19;;;;;;;2.13;1.67;;;;;;;28.47;40.94;100858.16;5014022;28;20032;-71
2022/06/29 10:19:24;;;;;;;2.85;1.83;;;;;;;28.43;40.94;100852.16;5031899;28;20033;-71
2022/06/29 10:21:50;;;;;;;2.47;1.70;;;;;;;28.22;41.84;100852.19;5033628;28;20090;-71
2022/06/29 10:24:19;;;;;;;3.33;1.90;;;;;;;28.63;41.39;100860.31;5033320;28;20041;-71
2022/06/29 10:26:46;;;;;;;4.15;1.80;;;;;;;28.97;41.21;100855.47;5033552;28;20029;-72
2022/06/29 10:29:20;;;;;;;3.33;1.52;;;;;;;29.42;40.30;100846.78;5033541;28;20583;-71
2022/06/29 10:31:53;;;;;;;3.47;1.77;;;;;;;29.24;38.95;100854.75;5033212;28;20440;-71
2022/06/29 10:37:04;;;;;;;2.67;1.60;;;;;;;30.01;39.38;100842.13;5033568;28;20049;-72
2022/06/29 10:39:45;;;;;;;1.75;1.50;;;;;;;30.49;38.66;100844.66;5033480;28;20071;-72
2022/06/29 10:45:14;;;;;;;2.35;1.50;;;;;;;30.51;37.89;100842.63;5033486;28;20152;-72
2022/06/29 10:48:06;;;;;;;1.60;1.30;;;;;;;30.62;37.10;100837.00;5033418;28;20037;-72
2022/06/29 10:50:32;;;;;;;2.67;1.42;;;;;;;30.84;37.97;100837.59;5015937;28;20076;-71
2022/06/29 10:53:04;;;;;;;2.47;1.50;;;;;;;31.23;36.27;100837.28;5033246;28;20092;-72
2022/06/29 10:55:31;;;;;;;3.42;2.05;;;;;;;31.02;36.84;100826.75;5015895;28;20120;-72
2022/06/29 10:57:58;;;;;;;2.10;1.40;;;;;;;30.64;37.42;100823.28;5033198;28;20055;-70
2022/06/29 11:00:27;;;;;;;2.33;1.52;;;;;;;30.84;37.46;100829.44;5014259;28;20041;-72
2022/06/29 11:02:52;;;;;;;2.70;1.50;;;;;;;31.05;37.50;100824.59;5029174;28;20037;-71
2022/06/29 11:05:18;;;;;;;2.92;1.90;;;;;;;30.40;37.82;100831.97;5015258;28;20041;-71
2022/06/29 11:13:26;;;;;;;3.60;1.60;;;;;;;29.47;38.32;100822.81;5034613;28;20052;-73
2022/06/29 11:15:54;;;;;;;2.00;1.40;;;;;;;29.20;39.21;100818.13;5036619;28;20099;-73
2022/06/29 11:18:28;;;;;;;4.88;1.52;;;;;;;29.25;39.63;100817.75;5019397;28;20037;-74
2022/06/29 11:20:55;;;;;;;4.95;1.70;;;;;;;29.37;39.27;100816.59;5036510;28;20539;-72
2022/06/29 11:23:24;;;;;;;2.55;1.50;;;;;;;29.19;39.17;100820.00;5052630;28;20415;-73
2022/06/29 11:25:54;;;;;;;1.80;1.30;;;;;;;29.67;38.99;100805.56;5036223;28;20132;-73
2022/06/29 11:28:23;;;;;;;3.97;1.40;;;;;;;30.39;37.94;100814.00;5033450;28;20088;-74
2022/06/29 11:30:59;;;;;;;1.77;1.40;;;;;;;30.94;35.98;100802.28;5037020;28;20029;-74
2022/06/29 11:33:28;;;;;;;2.45;1.38;;;;;;;31.23;36.26;100802.00;5036469;28;20037;-73
2022/06/29 11:35:53;;;;;;;1.88;1.15;;;;;;;31.55;35.71;100806.88;5035027;28;20038;-71
2022/06/29 11:38:19;;;;;;;1.65;1.40;;;;;;;31.90;35.62;100800.50;5026964;28;20095;-73
2022/06/29 11:40:46;;;;;;;2.42;1.40;;;;;;;32.15;34.83;100804.19;5037159;28;20045;-73
2022/06/29 11:43:18;;;;;;;1.67;1.30;;;;;;;32.21;33.15;100797.25;5052474;28;20030;-73
2022/06/29 11:45:49;;;;;;;2.97;1.50;;;;;;;31.95;34.45;100787.28;5037116;28;20030;-73